createdAt,value
2023-12-17T00:01:33.913Z,20.70
2023-12-17T00:06:38.917Z,21.60
2023-12-17T00:11:42.490Z,18.60
2023-12-17T00:16:45.417Z,18.70
2023-12-17T00:21:49.681Z,19.90
2023-12-17T00:26:56.085Z,18.00
2023-12-17T00:32:01.088Z,19.60
2023-12-17T00:37:05.928Z,18.90
2023-12-17T00:42:08.836Z,17.20
2023-12-17T00:47:11.752Z,18.40
2023-12-17T00:52:15.906Z,20.70
2023-12-17T00:57:22.234Z,17.50
2023-12-17T01:02:27.041Z,18.80
2023-12-17T01:07:30.001Z,16.90
2023-12-17T01:12:32.888Z,20.40
2023-12-17T01:17:35.878Z,15.30
2023-12-17T01:22:38.839Z,16.80
2023-12-17T01:27:41.997Z,16.10
2023-12-17T01:32:45.066Z,15.50
2023-12-17T01:37:48.460Z,14.90
2023-12-17T01:42:54.092Z,16.00
2023-12-17T01:47:57.096Z,15.70
2023-12-17T01:53:00.078Z,15.50
2023-12-17T01:58:04.269Z,13.90
2023-12-17T02:03:07.367Z,15.20
2023-12-17T02:08:10.377Z,25.50
2023-12-17T02:13:16.185Z,24.40
2023-12-17T02:18:19.252Z,20.40
2023-12-17T02:23:22.470Z,25.40
2023-12-17T02:28:25.331Z,28.10
2023-12-17T02:33:28.511Z,23.20
2023-12-17T02:38:31.434Z,21.90
2023-12-17T02:43:34.355Z,23.40
2023-12-17T02:48:37.451Z,23.50
2023-12-17T02:53:40.487Z,20.80
2023-12-17T02:58:43.371Z,21.10
2023-12-17T03:03:46.462Z,20.50
2023-12-17T03:08:49.522Z,20.80
2023-12-17T03:13:52.517Z,20.10
2023-12-17T03:18:55.712Z,18.00
2023-12-17T03:23:58.891Z,18.40
2023-12-17T03:29:01.988Z,20.80
2023-12-17T03:34:06.075Z,18.00
2023-12-17T03:39:09.224Z,18.90
2023-12-17T03:44:12.373Z,16.20
2023-12-17T03:49:15.374Z,18.30
2023-12-17T03:54:18.321Z,17.40
2023-12-17T03:59:21.205Z,16.10
2023-12-17T04:04:24.087Z,15.80
2023-12-17T04:09:27.011Z,18.40
2023-12-17T04:14:29.975Z,15.90
2023-12-17T04:19:32.984Z,16.10
2023-12-17T04:24:35.983Z,15.50
2023-12-17T04:29:38.836Z,16.30
2023-12-17T04:34:41.994Z,14.50
2023-12-17T04:39:44.995Z,16.20
2023-12-17T04:44:47.981Z,14.30
2023-12-17T04:49:51.018Z,13.00
2023-12-17T04:54:53.930Z,12.90
2023-12-17T04:59:58.194Z,13.80
2023-12-17T05:05:01.358Z,14.40
2023-12-17T05:10:04.673Z,13.90
2023-12-17T05:15:08.231Z,11.90
2023-12-17T05:20:11.404Z,12.90
2023-12-17T05:25:16.385Z,15.50
2023-12-17T05:30:20.598Z,12.40
2023-12-17T05:35:23.646Z,13.50
2023-12-17T05:40:26.599Z,11.10
2023-12-17T05:45:29.557Z,12.00
2023-12-17T05:50:32.480Z,10.90
2023-12-17T05:55:35.419Z,11.10
2023-12-17T06:00:39.486Z,12.00
2023-12-17T06:05:45.605Z,12.30
2023-12-17T06:10:50.454Z,11.30
2023-12-17T06:15:53.694Z,12.50
2023-12-17T06:20:56.589Z,10.70
2023-12-17T06:25:59.601Z,13.80
2023-12-17T06:31:02.655Z,11.40
2023-12-17T06:36:06.626Z,10.70
2023-12-17T06:41:09.605Z,10.00
2023-12-17T06:46:18.691Z,10.70
2023-12-17T06:51:21.659Z,9.40
2023-12-17T06:56:24.680Z,10.50
2023-12-17T07:01:29.752Z,9.40
2023-12-17T07:06:34.470Z,9.00
2023-12-17T07:11:37.403Z,11.80
2023-12-17T07:16:43.415Z,10.00
2023-12-17T07:21:46.420Z,9.40
2023-12-17T07:26:49.861Z,10.10
2023-12-17T07:31:54.416Z,10.40
2023-12-17T07:36:57.363Z,9.80
2023-12-17T07:42:03.599Z,8.90
2023-12-17T07:47:12.162Z,8.90
2023-12-17T07:52:16.520Z,8.60
2023-12-17T07:57:20.482Z,10.70
2023-12-17T08:02:25.337Z,7.90
2023-12-17T08:07:31.425Z,9.30
2023-12-17T08:12:34.628Z,8.90
2023-12-17T08:17:37.847Z,9.50
2023-12-17T08:22:40.935Z,8.00
2023-12-17T08:27:44.326Z,8.20
2023-12-17T08:32:47.870Z,8.60
2023-12-17T08:37:50.913Z,7.20
2023-12-17T08:42:54.005Z,9.60
2023-12-17T08:47:57.748Z,7.70
2023-12-17T08:53:02.149Z,8.70
2023-12-17T08:58:05.246Z,8.40
2023-12-17T09:03:11.356Z,8.70
2023-12-17T09:08:14.570Z,8.60
2023-12-17T09:13:17.541Z,8.60
2023-12-17T09:18:21.128Z,9.50
2023-12-17T09:23:24.181Z,8.70
2023-12-17T09:28:27.198Z,7.90
2023-12-17T09:33:30.241Z,8.60
2023-12-17T09:38:33.321Z,11.40
2023-12-17T09:43:36.232Z,11.40
2023-12-17T09:48:39.943Z,9.80
2023-12-17T09:53:44.014Z,8.60
2023-12-17T09:58:47.739Z,8.40
2023-12-17T10:03:51.235Z,10.30
2023-12-17T10:08:57.893Z,12.00
2023-12-17T10:14:02.020Z,11.20
2023-12-17T10:19:06.008Z,11.10
2023-12-17T10:24:12.063Z,11.50
2023-12-17T10:29:19.529Z,12.30
2023-12-17T10:34:24.724Z,11.50
2023-12-17T10:39:29.254Z,11.20
2023-12-17T10:44:34.188Z,11.80
2023-12-17T10:49:40.232Z,11.20
2023-12-17T10:54:43.267Z,13.10
2023-12-17T10:59:46.185Z,12.10
2023-12-17T11:04:50.491Z,13.70
2023-12-17T11:09:53.386Z,15.60
2023-12-17T11:14:56.477Z,12.20
2023-12-17T11:20:01.399Z,17.00
2023-12-17T11:25:12.482Z,13.40
2023-12-17T11:30:34.124Z,14.50
2023-12-17T11:40:42.155Z,13.90
2023-12-17T11:45:46.904Z,12.60
2023-12-17T11:50:50.855Z,14.10
2023-12-17T11:55:57.814Z,11.00
2023-12-17T12:01:04.322Z,12.50
2023-12-17T12:06:13.453Z,11.90
2023-12-17T12:11:19.319Z,12.80
2023-12-17T12:16:23.748Z,10.70
2023-12-17T12:21:27.921Z,11.40
2023-12-17T12:26:33.704Z,8.50
2023-12-17T12:31:37.342Z,6.00
2023-12-17T12:36:47.965Z,8.10
2023-12-17T12:41:51.458Z,6.40
2023-12-17T12:46:54.557Z,8.20
2023-12-17T12:51:58.042Z,7.20
2023-12-17T12:57:01.283Z,10.60
2023-12-17T13:02:05.207Z,8.20
2023-12-17T13:07:08.778Z,12.10
2023-12-17T13:12:12.566Z,11.10
2023-12-17T13:17:15.630Z,12.60
2023-12-17T13:22:18.657Z,12.00
2023-12-17T13:27:21.712Z,14.30
2023-12-17T13:32:24.722Z,20.10
2023-12-17T13:37:27.725Z,17.90
2023-12-17T13:42:30.845Z,18.30
2023-12-17T13:47:35.763Z,18.10
2023-12-17T13:52:42.141Z,18.70
2023-12-17T13:57:47.365Z,21.40
2023-12-17T14:02:51.973Z,18.10
2023-12-17T14:07:58.945Z,17.60
2023-12-17T14:13:02.044Z,15.80
2023-12-17T14:18:07.039Z,18.50
2023-12-17T14:23:13.998Z,18.00
2023-12-17T14:28:18.898Z,17.20
2023-12-17T14:33:22.519Z,17.30
2023-12-17T14:38:25.792Z,17.20
2023-12-17T14:43:28.809Z,20.60
2023-12-17T14:48:32.391Z,19.30
2023-12-17T14:53:43.657Z,21.30
2023-12-17T14:58:53.074Z,20.30
2023-12-17T15:03:58.240Z,23.10
2023-12-17T15:09:02.839Z,21.00
2023-12-17T15:14:06.073Z,22.00
2023-12-17T15:19:10.206Z,23.70
2023-12-17T15:24:13.256Z,26.80
2023-12-17T15:29:16.237Z,34.10
2023-12-17T15:34:19.442Z,28.70
2023-12-17T15:39:23.665Z,35.70
2023-12-17T15:44:29.888Z,35.70
2023-12-17T15:49:35.616Z,33.20
2023-12-17T15:54:38.903Z,35.90
2023-12-17T15:59:43.766Z,34.30
2023-12-17T16:04:46.750Z,36.10
2023-12-17T16:09:49.745Z,32.60
2023-12-17T16:14:55.043Z,30.90
2023-12-17T16:19:58.140Z,32.10
2023-12-17T16:25:01.389Z,29.50
2023-12-17T16:30:04.744Z,35.10
2023-12-17T16:35:10.022Z,31.20
2023-12-17T16:40:13.323Z,30.60
2023-12-17T16:45:16.392Z,28.90
2023-12-17T16:50:20.824Z,32.80
2023-12-17T16:55:23.852Z,34.90
2023-12-17T17:00:31.188Z,32.90
2023-12-17T17:05:34.865Z,30.70
2023-12-17T17:10:37.931Z,31.50
2023-12-17T17:15:41.061Z,31.30
2023-12-17T17:20:44.033Z,26.70
2023-12-17T17:25:48.139Z,32.60
2023-12-17T17:30:51.495Z,25.70
2023-12-17T17:35:54.686Z,28.90
2023-12-17T17:40:59.699Z,28.10
2023-12-17T17:46:04.744Z,28.50
2023-12-17T17:51:09.732Z,26.70
2023-12-17T17:56:13.133Z,25.80
2023-12-17T18:01:19.378Z,25.10
2023-12-17T18:06:22.718Z,24.90
2023-12-17T18:11:25.962Z,25.50
2023-12-17T18:16:29.159Z,23.80
2023-12-17T18:21:38.973Z,24.30
2023-12-17T18:26:42.185Z,22.90
2023-12-17T18:31:45.136Z,21.00
2023-12-17T18:36:49.557Z,20.40
2023-12-17T18:41:55.687Z,22.40
2023-12-17T18:47:00.564Z,20.80
2023-12-17T18:52:04.773Z,20.40
2023-12-17T18:57:07.885Z,18.90
2023-12-17T19:02:10.902Z,19.90
2023-12-17T19:07:13.996Z,19.50
2023-12-17T19:12:20.711Z,18.20
2023-12-17T19:17:25.784Z,16.80
2023-12-17T19:22:34.173Z,19.20
2023-12-17T19:27:39.564Z,17.00
2023-12-17T19:32:44.844Z,20.60
2023-12-17T19:37:48.114Z,20.80
2023-12-17T19:42:51.237Z,17.30
2023-12-17T19:47:54.325Z,20.20
2023-12-17T19:53:00.461Z,18.10
2023-12-17T19:58:05.645Z,20.30
2023-12-17T20:03:10.718Z,21.30
2023-12-17T20:08:13.794Z,18.10
2023-12-17T20:13:16.841Z,18.20
2023-12-17T20:18:21.224Z,17.00
2023-12-17T20:23:24.295Z,17.70
2023-12-17T20:28:27.305Z,17.50
2023-12-17T20:33:30.603Z,18.20
2023-12-17T20:38:34.672Z,17.60
2023-12-17T20:43:37.795Z,18.10
2023-12-17T20:48:40.998Z,19.60
2023-12-17T20:53:44.204Z,18.00
2023-12-17T20:58:49.391Z,18.00
2023-12-17T21:03:54.374Z,18.70
2023-12-17T21:08:57.635Z,18.60
2023-12-17T21:14:02.409Z,18.50
2023-12-17T21:19:09.693Z,20.20
2023-12-17T21:24:12.885Z,17.60
2023-12-17T21:29:15.988Z,21.10
2023-12-17T21:34:19.997Z,18.90
2023-12-17T21:39:23.082Z,17.10
2023-12-17T21:44:26.118Z,17.80
2023-12-17T21:49:30.642Z,19.30
2023-12-17T21:54:36.691Z,16.80
2023-12-17T21:59:40.114Z,17.80
2023-12-17T22:04:44.404Z,18.10
2023-12-17T22:09:47.578Z,18.30
2023-12-17T22:14:50.606Z,18.60
2023-12-17T22:19:55.472Z,16.80
2023-12-17T22:24:58.439Z,17.30
2023-12-17T22:30:01.801Z,16.80
2023-12-17T22:35:05.631Z,17.00
2023-12-17T22:40:09.283Z,15.90
2023-12-17T22:45:12.478Z,16.00
2023-12-17T22:50:15.634Z,16.80
2023-12-17T22:55:18.609Z,16.10
2023-12-17T23:00:22.536Z,13.30
2023-12-17T23:05:25.620Z,14.50
2023-12-17T23:10:28.577Z,15.20
2023-12-17T23:15:31.604Z,15.70
2023-12-17T23:20:34.551Z,15.90
2023-12-17T23:25:37.582Z,14.90
2023-12-17T23:30:40.673Z,16.20
2023-12-17T23:35:45.400Z,16.10
2023-12-17T23:40:50.307Z,13.50
2023-12-17T23:45:54.017Z,14.80
2023-12-17T23:51:00.253Z,14.60
2023-12-17T23:56:03.403Z,12.70
